Time,TemperatureF,DewpointF,PressureIn,WindDirection,WindDirectionDegrees,WindSpeedMPH,WindSpeedGustMPH,Humidity,HourlyPrecipIn,Conditions,Clouds,dailyrainin,SoftwareType,DateUTC
2013-03-07 00:05:00,37.8,35.4,30.00,NNW,340,0.0,2.0,91,0.00,,,-99.99,Weather View 32 v60,2013-03-07 08:05:00,
2013-03-07 00:10:00,37.8,35.4,30.00,NNW,335,1.0,2.0,91,0.00,,,-99.99,Weather View 32 v60,2013-03-07 08:10:00,
2013-03-07 00:15:00,37.8,35.4,30.00,NNE,22,1.0,2.0,91,0.00,,,-99.99,Weather View 32 v60,2013-03-07 08:15:00,
2013-03-07 00:20:00,37.7,35.3,30.00,NNE,22,0.0,2.0,91,0.00,,,-99.99,Weather View 32 v60,2013-03-07 08:20:00,
2013-03-07 00:25:00,37.7,35.3,30.00,NNE,33,1.0,2.0,91,0.00,,,-99.99,Weather View 32 v60,2013-03-07 08:25:00,
2013-03-07 00:30:00,37.8,35.7,30.01,North,4,2.0,2.0,92,0.00,,,-99.99,Weather View 32 v60,2013-03-07 08:30:00,
2013-03-07 00:35:00,38.0,35.9,30.01,North,352,2.0,3.0,92,0.00,,,-99.99,Weather View 32 v60,2013-03-07 08:35:00,
2013-03-07 00:50:00,38.0,35.9,30.01,NNW,345,1.0,3.0,92,0.00,,,-99.99,Weather View 32 v60,2013-03-07 08:50:00,
2013-03-07 00:55:00,38.0,35.9,30.01,North,8,1.0,3.0,92,0.00,,,-99.99,Weather View 32 v60,2013-03-07 08:55:00,
2013-03-07 01:00:00,38.1,36.0,30.01,North,359,1.0,3.0,92,0.00,,,-99.99,Weather View 32 v60,2013-03-07 09:00:00,
2013-03-07 01:05:00,38.0,35.9,30.00,ENE,61,1.0,3.0,92,0.00,,,-99.99,Weather View 32 v60,2013-03-07 09:05:00,
2013-03-07 01:10:00,37.9,35.8,30.00,NNE,23,1.0,3.0,92,0.00,,,-99.99,Weather View 32 v60,2013-03-07 09:10:00,
2013-03-07 01:15:00,37.7,35.6,30.00,North,3,1.0,3.0,92,0.00,,,-99.99,Weather View 32 v60,2013-03-07 09:15:00,
2013-03-07 01:25:00,38.0,35.9,30.00,NNE,20,2.0,3.0,92,0.00,,,-99.99,Weather View 32 v60,2013-03-07 09:25:00,
2013-03-07 01:30:00,38.2,36.1,30.00,North,6,2.0,5.0,92,0.00,,,-99.99,Weather View 32 v60,2013-03-07 09:30:00,
2013-03-07 01:35:00,38.2,36.1,30.00,NNW,342,2.0,5.0,92,0.00,,,-99.99,Weather View 32 v60,2013-03-07 09:35:00,
2013-03-07 01:40:00,38.1,36.0,30.00,NNW,334,2.0,5.0,92,0.00,,,-99.99,Weather View 32 v60,2013-03-07 09:40:00,
2013-03-07 01:43:00,38.0,35.9,30.01,NNW,341,2.0,3.0,92,0.00,,,-99.99,Weather View 32 v60,2013-03-07 09:43:00,
2013-03-07 01:45:00,37.9,35.8,30.00,NW,325,3.0,5.0,92,0.00,,,-99.99,Weather View 32 v60,2013-03-07 09:45:00,
2013-03-07 01:50:00,37.9,35.8,29.99,NW,323,3.0,5.0,92,0.00,,,-99.99,Weather View 32 v60,2013-03-07 09:50:00,
2013-03-07 01:55:00,37.7,35.6,29.99,NW,318,2.0,5.0,92,0.00,,,-99.99,Weather View 32 v60,2013-03-07 09:55:00,
2013-03-07 02:00:00,37.5,35.4,29.99,NW,325,2.0,5.0,92,0.00,,,-99.99,Weather View 32 v60,2013-03-07 10:00:00,
2013-03-07 02:15:00,37.3,35.5,29.99,NNW,340,2.0,5.0,93,0.00,,,-99.99,Weather View 32 v60,2013-03-07 10:15:00,
2013-03-07 02:20:00,37.3,35.5,29.99,NNW,338,2.0,5.0,93,0.00,,,-99.99,Weather View 32 v60,2013-03-07 10:20:00,
2013-03-07 02:23:00,37.8,35.7,30.00,North,351,2.0,3.0,92,0.00,,,-99.99,Weather View 32 v60,2013-03-07 10:23:00,
2013-03-07 02:35:00,37.5,35.7,29.99,North,352,2.0,5.0,93,0.00,,,-99.99,Weather View 32 v60,2013-03-07 10:35:00,
2013-03-07 02:40:00,37.5,35.7,29.99,NNW,344,4.0,5.0,93,0.00,,,-99.99,Weather View 32 v60,2013-03-07 10:40:00,
2013-03-07 02:45:00,37.5,35.7,29.99,NNW,336,1.0,5.0,93,0.00,,,-99.99,Weather View 32 v60,2013-03-07 10:45:00,
2013-03-07 02:50:00,37.4,35.6,29.99,North,355,2.0,5.0,93,0.00,,,-99.99,Weather View 32 v60,2013-03-07 10:50:00,
2013-03-07 02:55:00,37.4,35.6,29.99,North,354,2.0,5.0,93,0.00,,,-99.99,Weather View 32 v60,2013-03-07 10:55:00,
2013-03-07 03:00:00,37.4,35.6,29.99,NNW,338,3.0,5.0,93,0.00,,,-99.99,Weather View 32 v60,2013-03-07 11:00:00,
2013-03-07 03:05:00,37.3,35.5,29.99,NNW,344,2.0,5.0,93,0.00,,,-99.99,Weather View 32 v60,2013-03-07 11:05:00,
2013-03-07 03:08:00,37.4,35.3,29.99,NW,318,2.0,5.0,92,0.00,,,-99.99,Weather View 32 v60,2013-03-07 11:08:00,
2013-03-07 03:10:00,37.3,35.5,29.99,North,351,4.0,6.0,93,0.00,,,-99.99,Weather View 32 v60,2013-03-07 11:10:00,
2013-03-07 03:13:00,37.3,35.2,29.99,NW,313,2.0,5.0,92,0.00,,,-99.99,Weather View 32 v60,2013-03-07 11:13:00,
2013-03-07 03:15:00,37.5,35.7,29.99,North,2,3.0,7.0,93,0.00,,,-99.99,Weather View 32 v60,2013-03-07 11:15:00,
2013-03-07 03:20:00,37.4,35.6,29.99,North,350,4.0,7.0,93,0.00,,,-99.99,Weather View 32 v60,2013-03-07 11:20:00,
2013-03-07 03:24:00,37.3,35.5,29.99,NNW,338,2.0,5.0,93,0.00,,,-99.99,Weather View 32 v60,2013-03-07 11:24:00,
2013-03-07 03:25:00,37.3,35.5,29.99,North,352,2.0,7.0,93,0.00,,,-99.99,Weather View 32 v60,2013-03-07 11:25:00,
2013-03-07 03:30:00,37.2,35.4,29.99,North,351,2.0,7.0,93,0.00,,,-99.99,Weather View 32 v60,2013-03-07 11:30:00,
2013-03-07 03:33:00,37.5,35.7,29.98,NNW,337,3.0,5.0,93,0.00,,,-99.99,Weather View 32 v60,2013-03-07 11:33:00,
2013-03-07 03:35:00,37.2,35.4,29.99,NNE,12,2.0,7.0,93,0.00,,,-99.99,Weather View 32 v60,2013-03-07 11:35:00,
2013-03-07 03:45:00,37.3,35.5,29.99,North,7,4.0,8.0,93,0.00,,,-99.99,Weather View 32 v60,2013-03-07 11:45:00,
2013-03-07 03:50:00,37.3,35.5,29.99,North,5,3.0,8.0,93,0.00,,,-99.99,Weather View 32 v60,2013-03-07 11:50:00,
2013-03-07 03:55:00,37.4,35.6,29.99,NNW,333,2.0,8.0,93,0.00,,,-99.99,Weather View 32 v60,2013-03-07 11:55:00,
2013-03-07 04:00:00,37.5,35.7,29.99,WNW,292,3.0,8.0,93,0.00,,,-99.99,Weather View 32 v60,2013-03-07 12:00:00,
2013-03-07 04:10:00,37.8,36.0,29.99,NW,314,2.0,8.0,93,0.00,,,-99.99,Weather View 32 v60,2013-03-07 12:10:00,
2013-03-07 04:20:00,37.7,35.9,29.99,NNW,339,4.0,8.0,93,0.00,,,-99.99,Weather View 32 v60,2013-03-07 12:20:00,
2013-03-07 04:40:00,37.8,35.7,30.00,NW,309,3.0,8.0,92,0.00,,,-99.99,Weather View 32 v60,2013-03-07 12:40:00,
2013-03-07 04:43:00,37.2,35.4,29.99,North,8,4.0,7.0,93,0.00,,,-99.99,Weather View 32 v60,2013-03-07 12:43:00,
2013-03-07 04:50:00,37.8,35.7,30.00,NNW,337,3.0,8.0,92,0.00,,,-99.99,Weather View 32 v60,2013-03-07 12:50:00,
2013-03-07 05:08:00,37.7,35.9,29.99,NNW,336,5.0,8.0,93,0.00,,,-99.99,Weather View 32 v60,2013-03-07 13:08:00,
2013-03-07 05:15:00,37.8,35.7,30.00,NW,321,2.0,8.0,92,0.00,,,-99.99,Weather View 32 v60,2013-03-07 13:15:00,
2013-03-07 05:18:00,37.7,35.9,29.99,NW,309,3.0,8.0,93,0.00,,,-99.99,Weather View 32 v60,2013-03-07 13:18:00,
2013-03-07 05:23:00,37.7,35.9,29.99,NNW,339,4.0,8.0,93,0.00,,,-99.99,Weather View 32 v60,2013-03-07 13:23:00,
2013-03-07 05:28:00,37.9,36.1,29.99,NNW,335,4.0,8.0,93,0.00,,,-99.99,Weather View 32 v60,2013-03-07 13:28:00,
2013-03-07 05:38:00,37.8,35.7,30.00,NW,325,4.0,8.0,92,0.00,,,-99.99,Weather View 32 v60,2013-03-07 13:38:00,
2013-03-07 05:48:00,37.8,35.7,30.00,NNW,343,2.0,8.0,92,0.00,,,-99.99,Weather View 32 v60,2013-03-07 13:48:00,
2013-03-07 05:58:00,37.8,35.7,30.00,NW,321,2.0,8.0,92,0.00,,,-99.99,Weather View 32 v60,2013-03-07 13:58:00,
2013-03-07 06:08:00,37.9,35.8,30.00,North,359,2.0,8.0,92,0.00,,,-99.99,Weather View 32 v60,2013-03-07 14:08:00,
2013-03-07 06:23:00,37.8,35.7,30.00,NNW,332,0.0,8.0,92,0.00,,,-99.99,Weather View 32 v60,2013-03-07 14:23:00,
2013-03-07 06:28:00,37.8,35.7,30.00,North,3,2.0,8.0,92,0.00,,,-99.99,Weather View 32 v60,2013-03-07 14:28:00,
2013-03-07 06:33:00,37.7,35.6,29.99,North,3,1.0,8.0,92,0.00,,,-99.99,Weather View 32 v60,2013-03-07 14:33:00,
2013-03-07 06:38:00,37.6,35.5,29.99,NNW,334,1.0,6.0,92,0.00,,,-99.99,Weather View 32 v60,2013-03-07 14:38:00,
2013-03-07 06:43:00,37.4,35.3,29.99,NNW,334,2.0,5.0,92,0.00,,,-99.99,Weather View 32 v60,2013-03-07 14:43:00,
2013-03-07 06:48:00,37.3,35.2,29.99,North,9,3.0,5.0,92,0.00,,,-99.99,Weather View 32 v60,2013-03-07 14:48:00,
2013-03-07 06:53:00,37.3,35.2,29.99,NNE,23,4.0,5.0,92,0.00,,,-99.99,Weather View 32 v60,2013-03-07 14:53:00,
2013-03-07 07:03:00,37.5,35.4,29.99,North,355,4.0,5.0,92,0.00,,,-99.99,Weather View 32 v60,2013-03-07 15:03:00,
2013-03-07 07:08:00,37.6,35.5,29.99,NNW,327,2.0,5.0,92,0.00,,,-99.99,Weather View 32 v60,2013-03-07 15:08:00,
2013-03-07 07:13:00,37.8,35.7,29.99,North,353,2.0,5.0,92,0.00,,,-99.99,Weather View 32 v60,2013-03-07 15:13:00,
2013-03-07 07:23:00,38.1,36.0,29.98,NE,40,2.0,5.0,92,0.00,,,-99.99,Weather View 32 v60,2013-03-07 15:23:00,
2013-03-07 07:28:00,38.4,36.3,29.98,NNE,15,2.0,5.0,92,0.00,,,-99.99,Weather View 32 v60,2013-03-07 15:28:00,
2013-03-07 07:33:00,38.5,36.4,29.98,NNE,14,3.0,5.0,92,0.00,,,-99.99,Weather View 32 v60,2013-03-07 15:33:00,
2013-03-07 07:38:00,38.8,36.7,29.98,NW,322,2.0,5.0,92,0.00,,,-99.99,Weather View 32 v60,2013-03-07 15:38:00,
2013-03-07 07:48:00,39.1,36.7,29.99,North,356,4.0,5.0,91,0.00,,,-99.99,Weather View 32 v60,2013-03-07 15:48:00,
2013-03-07 07:58:00,39.0,36.6,29.99,North,357,3.0,6.0,91,0.00,,,-99.99,Weather View 32 v60,2013-03-07 15:58:00,
2013-03-07 08:03:00,39.2,36.5,29.99,North,0,2.0,6.0,90,0.00,,,-99.99,Weather View 32 v60,2013-03-07 16:03:00,
2013-03-07 08:13:00,39.6,36.9,29.99,NNW,347,4.0,6.0,90,0.00,,,-99.99,Weather View 32 v60,2013-03-07 16:13:00,
2013-03-07 08:18:00,40.0,37.3,29.99,NNE,16,2.0,6.0,90,0.00,,,-99.99,Weather View 32 v60,2013-03-07 16:18:00,
2013-03-07 08:20:00,45.5,40.0,29.98,NNE,29,2.0,7.0,81,0.00,,,-99.99,Weather View 32 v60,2013-03-07 16:20:00,
2013-03-07 08:23:00,40.4,37.7,29.98,NNW,330,3.0,6.0,90,0.00,,,-99.99,Weather View 32 v60,2013-03-07 16:23:00,
2013-03-07 08:28:00,40.8,37.8,29.98,North,352,4.0,6.0,89,0.00,,,-99.99,Weather View 32 v60,2013-03-07 16:28:00,
2013-03-07 08:30:00,47.2,40.0,29.98,NNE,15,1.0,7.0,76,0.00,,,-99.99,Weather View 32 v60,2013-03-07 16:30:00,
2013-03-07 08:33:00,41.0,37.7,29.98,NW,310,2.0,6.0,88,0.00,,,-99.99,Weather View 32 v60,2013-03-07 16:33:00,
2013-03-07 08:38:00,41.5,38.2,29.98,NNW,343,3.0,6.0,88,0.00,,,-99.99,Weather View 32 v60,2013-03-07 16:38:00,
2013-03-07 08:43:00,41.9,38.6,29.99,West,281,2.0,6.0,88,0.00,,,-99.99,Weather View 32 v60,2013-03-07 16:43:00,
2013-03-07 08:45:00,49.2,40.9,29.97,East,91,2.0,7.0,73,0.00,,,-99.99,Weather View 32 v60,2013-03-07 16:45:00,
2013-03-07 08:50:00,49.1,40.4,29.97,NNE,20,1.0,5.0,72,0.00,,,-99.99,Weather View 32 v60,2013-03-07 16:50:00,
2013-03-07 08:53:00,42.2,38.3,29.99,West,274,3.0,7.0,86,0.00,,,-99.99,Weather View 32 v60,2013-03-07 16:53:00,
2013-03-07 08:55:00,50.0,41.0,29.97,NE,43,2.0,5.0,71,0.00,,,-99.99,Weather View 32 v60,2013-03-07 16:55:00,
2013-03-07 08:58:00,42.6,38.7,29.99,West,277,3.0,7.0,86,0.00,,,-99.99,Weather View 32 v60,2013-03-07 16:58:00,
2013-03-07 09:08:00,43.7,39.2,29.99,NNW,348,1.0,7.0,84,0.00,,,-99.99,Weather View 32 v60,2013-03-07 17:08:00,
2013-03-07 09:13:00,44.1,39.6,29.99,North,355,1.0,7.0,84,0.00,,,-99.99,Weather View 32 v60,2013-03-07 17:13:00,
2013-03-07 09:20:00,55.1,42.3,29.95,WNW,298,2.0,4.0,62,0.00,,,-99.99,Weather View 32 v60,2013-03-07 17:20:00,
2013-03-07 09:23:00,45.5,40.0,29.98,NNE,29,2.0,7.0,81,0.00,,,-99.99,Weather View 32 v60,2013-03-07 17:23:00,
2013-03-07 09:25:00,53.6,40.5,29.94,ESE,106,4.0,5.0,61,0.00,,,-99.99,Weather View 32 v60,2013-03-07 17:25:00,
2013-03-07 09:28:00,46.8,40.9,29.98,North,359,0.0,7.0,80,0.00,,,-99.99,Weather View 32 v60,2013-03-07 17:28:00,
2013-03-07 09:30:00,53.9,40.7,29.94,ESE,119,3.0,5.0,61,0.00,,,-99.99,Weather View 32 v60,2013-03-07 17:30:00,
2013-03-07 09:35:00,54.0,40.0,29.94,WSW,241,3.0,5.0,59,0.00,,,-99.99,Weather View 32 v60,2013-03-07 17:35:00,
2013-03-07 09:38:00,48.3,41.1,29.97,North,6,1.0,7.0,76,0.00,,,-99.99,Weather View 32 v60,2013-03-07 17:38:00,
2013-03-07 09:55:00,58.8,40.2,29.93,NNW,343,1.0,6.0,50,0.00,,,-99.99,Weather View 32 v60,2013-03-07 17:55:00,
2013-03-07 10:00:00,60.1,40.3,29.92,East,83,2.0,6.0,48,0.00,,,-99.99,Weather View 32 v60,2013-03-07 18:00:00,
2013-03-07 10:03:00,50.7,41.3,29.96,SSE,147,0.0,5.0,70,0.00,,,-99.99,Weather View 32 v60,2013-03-07 18:03:00,
2013-03-07 10:05:00,59.8,38.9,29.92,South,173,5.0,6.0,46,0.00,,,-99.99,Weather View 32 v60,2013-03-07 18:05:00,
2013-03-07 10:08:00,52.5,42.2,29.96,North,6,1.0,4.0,68,0.00,,,-99.99,Weather View 32 v60,2013-03-07 18:08:00,
2013-03-07 10:13:00,53.7,42.6,29.96,NNE,19,4.0,4.0,66,0.00,,,-99.99,Weather View 32 v60,2013-03-07 18:13:00,
2013-03-07 10:15:00,55.6,34.6,29.92,South,171,7.0,12.0,45,0.00,,,-99.99,Weather View 32 v60,2013-03-07 18:15:00,
2013-03-07 10:18:00,54.3,42.8,29.95,ENE,67,2.0,4.0,65,0.00,,,-99.99,Weather View 32 v60,2013-03-07 18:18:00,
2013-03-07 10:20:00,55.3,34.8,29.92,SSE,165,7.0,12.0,46,0.00,,,-99.99,Weather View 32 v60,2013-03-07 18:20:00,
2013-03-07 10:23:00,55.1,42.3,29.95,WNW,298,2.0,4.0,62,0.00,,,-99.99,Weather View 32 v60,2013-03-07 18:23:00,
2013-03-07 10:25:00,56.1,35.0,29.91,South,172,8.0,12.0,45,0.00,,,-99.99,Weather View 32 v60,2013-03-07 18:25:00,
2013-03-07 10:30:00,56.0,34.3,29.91,ESE,119,7.0,12.0,44,0.00,,,-99.99,Weather View 32 v60,2013-03-07 18:30:00,
2013-03-07 10:35:00,55.6,34.6,29.91,East,80,4.0,12.0,45,0.00,,,-99.99,Weather View 32 v60,2013-03-07 18:35:00,
2013-03-07 10:43:00,55.8,41.2,29.93,WNW,292,3.0,5.0,58,0.00,,,-99.99,Weather View 32 v60,2013-03-07 18:43:00,
2013-03-07 10:50:00,56.8,35.1,29.91,SE,125,5.0,12.0,44,0.00,,,-99.99,Weather View 32 v60,2013-03-07 18:50:00,
2013-03-07 10:53:00,58.2,40.1,29.93,SSE,164,2.0,6.0,51,0.00,,,-99.99,Weather View 32 v60,2013-03-07 18:53:00,
2013-03-07 10:55:00,56.9,35.2,29.90,SSE,163,5.0,12.0,44,0.00,,,-99.99,Weather View 32 v60,2013-03-07 18:55:00,
2013-03-07 11:00:00,56.4,34.7,29.90,NE,34,6.0,12.0,44,0.00,,,-99.99,Weather View 32 v60,2013-03-07 19:00:00,
2013-03-07 11:13:00,57.3,36.1,29.92,SSE,160,6.0,11.0,45,0.00,,,-99.99,Weather View 32 v60,2013-03-07 19:13:00,
2013-03-07 11:25:00,55.5,35.0,29.89,South,175,6.0,12.0,46,0.00,,,-99.99,Weather View 32 v60,2013-03-07 19:25:00,
2013-03-07 11:30:00,54.6,37.8,29.89,SW,216,5.0,11.0,53,0.00,,,-99.99,Weather View 32 v60,2013-03-07 19:30:00,
2013-03-07 11:35:00,54.3,38.0,29.89,SW,225,5.0,11.0,54,0.00,,,-99.99,Weather View 32 v60,2013-03-07 19:35:00,
2013-03-07 11:43:00,56.3,34.6,29.91,SSE,147,5.0,12.0,44,0.00,,,-99.99,Weather View 32 v60,2013-03-07 19:43:00,
2013-03-07 11:45:00,54.3,37.5,29.89,SW,214,5.0,11.0,53,0.00,,,-99.99,Weather View 32 v60,2013-03-07 19:45:00,
2013-03-07 11:48:00,56.2,35.1,29.91,ESE,119,5.0,12.0,45,0.00,,,-99.99,Weather View 32 v60,2013-03-07 19:48:00,
2013-03-07 11:55:00,54.1,38.3,29.88,WSW,239,4.0,11.0,55,0.00,,,-99.99,Weather View 32 v60,2013-03-07 19:55:00,
2013-03-07 12:08:00,56.1,35.0,29.90,SE,140,8.0,12.0,45,0.00,,,-99.99,Weather View 32 v60,2013-03-07 20:08:00,
2013-03-07 12:10:00,54.0,38.2,29.88,SW,214,5.0,11.0,55,0.00,,,-99.99,Weather View 32 v60,2013-03-07 20:10:00,
2013-03-07 12:18:00,55.8,34.7,29.90,ESE,113,3.0,12.0,45,0.00,,,-99.99,Weather View 32 v60,2013-03-07 20:18:00,
2013-03-07 12:20:00,54.2,38.8,29.88,NNW,335,4.0,11.0,56,0.00,,,-99.99,Weather View 32 v60,2013-03-07 20:20:00,
2013-03-07 12:23:00,55.5,33.9,29.89,SW,215,4.0,12.0,44,0.00,,,-99.99,Weather View 32 v60,2013-03-07 20:23:00,
2013-03-07 12:25:00,54.0,38.6,29.87,SW,228,5.0,11.0,56,0.00,,,-99.99,Weather View 32 v60,2013-03-07 20:25:00,
2013-03-07 12:30:00,54.0,38.6,29.87,SW,217,3.0,10.0,56,0.00,,,-99.99,Weather View 32 v60,2013-03-07 20:30:00,
2013-03-07 12:35:00,54.4,38.5,29.87,South,170,4.0,10.0,55,0.00,,,-99.99,Weather View 32 v60,2013-03-07 20:35:00,
2013-03-07 12:45:00,54.7,37.9,29.87,WNW,302,4.0,9.0,53,0.00,,,-99.99,Weather View 32 v60,2013-03-07 20:45:00,
2013-03-07 12:50:00,54.9,38.1,29.87,SW,224,2.0,8.0,53,0.00,,,-99.99,Weather View 32 v60,2013-03-07 20:50:00,
2013-03-07 12:53:00,54.2,37.9,29.89,SSW,213,5.0,11.0,54,0.00,,,-99.99,Weather View 32 v60,2013-03-07 20:53:00,
2013-03-07 12:55:00,54.8,37.5,29.87,SW,215,3.0,8.0,52,0.00,,,-99.99,Weather View 32 v60,2013-03-07 20:55:00,
2013-03-07 13:00:00,55.0,37.2,29.86,WNW,289,3.0,8.0,51,0.00,,,-99.99,Weather View 32 v60,2013-03-07 21:00:00,
2013-03-07 13:03:00,54.0,37.7,29.88,SW,227,4.0,11.0,54,0.00,,,-99.99,Weather View 32 v60,2013-03-07 21:03:00,
2013-03-07 13:08:00,54.0,38.2,29.88,SSW,207,5.0,11.0,55,0.00,,,-99.99,Weather View 32 v60,2013-03-07 21:08:00,
2013-03-07 13:18:00,54.0,38.2,29.88,SSE,165,4.0,11.0,55,0.00,,,-99.99,Weather View 32 v60,2013-03-07 21:18:00,
2013-03-07 13:20:00,55.6,36.2,29.86,West,272,2.0,8.0,48,0.00,,,-99.99,Weather View 32 v60,2013-03-07 21:20:00,
2013-03-07 13:30:00,56.0,35.5,29.86,ESE,108,2.0,7.0,46,0.00,,,-99.99,Weather View 32 v60,2013-03-07 21:30:00,
2013-03-07 13:43:00,54.5,37.7,29.87,SSW,210,1.0,9.0,53,0.00,,,-99.99,Weather View 32 v60,2013-03-07 21:43:00,
2013-03-07 14:05:00,57.2,36.0,29.86,NNE,21,1.0,7.0,45,0.00,,,-99.99,Weather View 32 v60,2013-03-07 22:05:00,
2013-03-07 14:08:00,55.3,37.4,29.86,SW,218,4.0,8.0,51,0.00,,,-99.99,Weather View 32 v60,2013-03-07 22:08:00,
2013-03-07 14:13:00,55.5,37.1,29.86,WSW,253,2.0,8.0,50,0.00,,,-99.99,Weather View 32 v60,2013-03-07 22:13:00,
2013-03-07 14:18:00,55.6,36.2,29.86,South,170,5.0,8.0,48,0.00,,,-99.99,Weather View 32 v60,2013-03-07 22:18:00,
2013-03-07 14:28:00,55.8,35.8,29.86,SSE,150,3.0,7.0,47,0.00,,,-99.99,Weather View 32 v60,2013-03-07 22:28:00,
2013-03-07 14:38:00,56.0,35.5,29.86,ESE,102,0.0,7.0,46,0.00,,,-99.99,Weather View 32 v60,2013-03-07 22:38:00,
2013-03-07 14:40:00,57.9,35.5,29.85,NNE,15,4.0,5.0,43,0.00,,,-99.99,Weather View 32 v60,2013-03-07 22:40:00,
2013-03-07 14:43:00,56.3,35.2,29.86,East,86,3.0,7.0,45,0.00,,,-99.99,Weather View 32 v60,2013-03-07 22:43:00,
2013-03-07 14:45:00,58.3,35.9,29.84,NNW,344,3.0,5.0,43,0.00,,,-99.99,Weather View 32 v60,2013-03-07 22:45:00,
2013-03-07 14:48:00,56.5,35.4,29.86,SE,140,0.0,7.0,45,0.00,,,-99.99,Weather View 32 v60,2013-03-07 22:48:00,
2013-03-07 14:53:00,57.1,35.3,29.86,NNW,335,2.0,7.0,44,0.00,,,-99.99,Weather View 32 v60,2013-03-07 22:53:00,
2013-03-07 14:58:00,57.4,35.6,29.86,North,1,0.0,7.0,44,0.00,,,-99.99,Weather View 32 v60,2013-03-07 22:58:00,
2013-03-07 15:03:00,57.7,35.3,29.86,NW,319,4.0,7.0,43,0.00,,,-99.99,Weather View 32 v60,2013-03-07 23:03:00,
2013-03-07 15:13:00,57.4,35.6,29.85,North,355,1.0,7.0,44,0.00,,,-99.99,Weather View 32 v60,2013-03-07 23:13:00,
2013-03-07 15:18:00,57.5,35.7,29.86,ENE,69,2.0,7.0,44,0.00,,,-99.99,Weather View 32 v60,2013-03-07 23:18:00,
2013-03-07 15:20:00,57.0,34.7,29.84,NNE,19,4.0,6.0,43,0.00,,,-99.99,Weather View 32 v60,2013-03-07 23:20:00,
2013-03-07 15:23:00,57.6,35.8,29.85,WNW,297,3.0,7.0,44,0.00,,,-99.99,Weather View 32 v60,2013-03-07 23:23:00,
2013-03-07 15:28:00,57.4,35.0,29.85,West,275,1.0,6.0,43,0.00,,,-99.99,Weather View 32 v60,2013-03-07 23:28:00,
2013-03-07 15:33:00,57.7,35.3,29.85,North,0,3.0,5.0,43,0.00,,,-99.99,Weather View 32 v60,2013-03-07 23:33:00,
2013-03-07 15:38:00,57.9,35.5,29.85,WNW,303,1.0,5.0,43,0.00,,,-99.99,Weather View 32 v60,2013-03-07 23:38:00,
2013-03-07 15:53:00,58.3,35.9,29.84,West,276,2.0,5.0,43,0.00,,,-99.99,Weather View 32 v60,2013-03-07 23:53:00,
2013-03-07 15:58:00,57.8,36.6,29.84,North,353,1.0,5.0,45,0.00,,,-99.99,Weather View 32 v60,2013-03-07 23:58:00,
2013-03-07 16:03:00,57.7,35.9,29.84,ENE,69,1.0,6.0,44,0.00,,,-99.99,Weather View 32 v60,2013-03-08 00:03:00,
2013-03-07 16:08:00,57.1,35.3,29.84,NNE,30,2.0,6.0,44,0.00,,,-99.99,Weather View 32 v60,2013-03-08 00:08:00,
2013-03-07 16:13:00,57.2,36.0,29.84,North,349,4.0,6.0,45,0.00,,,-99.99,Weather View 32 v60,2013-03-08 00:13:00,
2013-03-07 16:28:00,56.7,34.4,29.84,NNW,330,3.0,7.0,43,0.00,,,-99.99,Weather View 32 v60,2013-03-08 00:28:00,
2013-03-07 16:33:00,56.6,34.3,29.84,NE,50,2.0,7.0,43,0.00,,,-99.99,Weather View 32 v60,2013-03-08 00:33:00,
2013-03-07 16:38:00,56.5,34.2,29.84,NE,44,3.0,7.0,43,0.00,,,-99.99,Weather View 32 v60,2013-03-08 00:38:00,
2013-03-07 16:43:00,56.4,34.1,29.84,NNE,20,3.0,7.0,43,0.00,,,-99.99,Weather View 32 v60,2013-03-08 00:43:00,
2013-03-07 16:48:00,56.4,34.1,29.84,East,88,3.0,7.0,43,0.00,,,-99.99,Weather View 32 v60,2013-03-08 00:48:00,
2013-03-07 16:53:00,56.2,34.0,29.84,NNE,32,1.0,7.0,43,0.00,,,-99.99,Weather View 32 v60,2013-03-08 00:53:00,
2013-03-07 16:58:00,55.9,34.3,29.84,NE,55,4.0,9.0,44,0.00,,,-99.99,Weather View 32 v60,2013-03-08 00:58:00,
2013-03-07 17:03:00,55.6,31.6,29.84,ESE,121,6.0,11.0,40,0.00,,,-99.99,Weather View 32 v60,2013-03-08 01:03:00,
2013-03-07 17:08:00,55.8,32.4,29.84,East,100,2.0,11.0,41,0.00,,,-99.99,Weather View 32 v60,2013-03-08 01:08:00,
2013-03-07 17:13:00,55.8,31.2,29.84,East,97,5.0,11.0,39,0.00,,,-99.99,Weather View 32 v60,2013-03-08 01:13:00,
2013-03-07 17:18:00,55.7,31.1,29.84,East,95,3.0,11.0,39,0.00,,,-99.99,Weather View 32 v60,2013-03-08 01:18:00,
2013-03-07 17:23:00,55.6,31.6,29.84,SE,127,4.0,11.0,40,0.00,,,-99.99,Weather View 32 v60,2013-03-08 01:23:00,
2013-03-07 17:25:00,53.9,36.6,29.83,NW,324,5.0,8.0,52,0.00,,,-99.99,Weather View 32 v60,2013-03-08 01:25:00,
2013-03-07 17:28:00,55.5,31.5,29.84,SE,145,1.0,11.0,40,0.00,,,-99.99,Weather View 32 v60,2013-03-08 01:28:00,
2013-03-07 17:30:00,53.8,36.1,29.83,NNW,329,3.0,8.0,51,0.00,,,-99.99,Weather View 32 v60,2013-03-08 01:30:00,
2013-03-07 17:33:00,55.5,31.5,29.84,ENE,71,2.0,11.0,40,0.00,,,-99.99,Weather View 32 v60,2013-03-08 01:33:00,
2013-03-07 17:38:00,55.3,32.0,29.84,NNE,17,1.0,11.0,41,0.00,,,-99.99,Weather View 32 v60,2013-03-08 01:38:00,
2013-03-07 17:43:00,55.2,33.0,29.84,NNE,27,2.0,11.0,43,0.00,,,-99.99,Weather View 32 v60,2013-03-08 01:43:00,
2013-03-07 17:53:00,55.1,34.1,29.84,NNW,334,2.0,11.0,45,0.00,,,-99.99,Weather View 32 v60,2013-03-08 01:53:00,
2013-03-07 17:58:00,55.1,35.2,29.84,NW,315,4.0,11.0,47,0.00,,,-99.99,Weather View 32 v60,2013-03-08 01:58:00,
2013-03-07 18:00:00,53.1,35.4,29.84,North,354,3.0,8.0,51,0.00,,,-99.99,Weather View 32 v60,2013-03-08 02:00:00,
2013-03-07 18:03:00,54.9,35.0,29.84,NW,322,4.0,9.0,47,0.00,,,-99.99,Weather View 32 v60,2013-03-08 02:03:00,
2013-03-07 18:08:00,54.7,35.4,29.84,North,355,2.0,9.0,48,0.00,,,-99.99,Weather View 32 v60,2013-03-08 02:08:00,
2013-03-07 18:13:00,54.5,36.2,29.84,North,349,3.0,9.0,50,0.00,,,-99.99,Weather View 32 v60,2013-03-08 02:13:00,
2013-03-07 18:18:00,54.2,36.4,29.84,NW,311,4.0,9.0,51,0.00,,,-99.99,Weather View 32 v60,2013-03-08 02:18:00,
2013-03-07 18:23:00,54.0,36.2,29.84,NNW,339,3.0,9.0,51,0.00,,,-99.99,Weather View 32 v60,2013-03-08 02:23:00,
2013-03-07 18:25:00,51.9,36.2,29.85,NNE,14,2.0,8.0,55,0.00,,,-99.99,Weather View 32 v60,2013-03-08 02:25:00,
2013-03-07 18:28:00,53.9,36.6,29.83,NW,324,5.0,8.0,52,0.00,,,-99.99,Weather View 32 v60,2013-03-08 02:28:00,
2013-03-07 18:35:00,51.5,36.7,29.85,NNE,24,2.0,8.0,57,0.00,,,-99.99,Weather View 32 v60,2013-03-08 02:35:00,
2013-03-07 18:38:00,53.8,35.6,29.83,NNW,339,3.0,8.0,50,0.00,,,-99.99,Weather View 32 v60,2013-03-08 02:38:00,
2013-03-07 18:43:00,53.8,35.0,29.83,NNW,340,4.0,8.0,49,0.00,,,-99.99,Weather View 32 v60,2013-03-08 02:43:00,
2013-03-07 18:48:00,53.8,35.6,29.83,NNW,346,3.0,8.0,50,0.00,,,-99.99,Weather View 32 v60,2013-03-08 02:48:00,
2013-03-07 18:53:00,53.5,35.8,29.83,North,7,2.0,8.0,51,0.00,,,-99.99,Weather View 32 v60,2013-03-08 02:53:00,
2013-03-07 18:58:00,53.3,35.6,29.84,North,352,2.0,8.0,51,0.00,,,-99.99,Weather View 32 v60,2013-03-08 02:58:00,
2013-03-07 19:08:00,52.9,34.7,29.84,NNE,21,1.0,8.0,50,0.00,,,-99.99,Weather View 32 v60,2013-03-08 03:08:00,
2013-03-07 19:13:00,52.7,35.0,29.84,NE,56,3.0,8.0,51,0.00,,,-99.99,Weather View 32 v60,2013-03-08 03:13:00,
2013-03-07 19:15:00,51.2,37.8,29.85,North,1,2.0,5.0,60,0.00,,,-99.99,Weather View 32 v60,2013-03-08 03:15:00,
2013-03-07 19:18:00,52.4,35.7,29.84,North,11,1.0,8.0,53,0.00,,,-99.99,Weather View 32 v60,2013-03-08 03:18:00,
2013-03-07 19:23:00,52.1,35.9,29.85,NE,49,2.0,8.0,54,0.00,,,-99.99,Weather View 32 v60,2013-03-08 03:23:00,
2013-03-07 19:33:00,51.7,36.5,29.85,NNE,19,2.0,8.0,56,0.00,,,-99.99,Weather View 32 v60,2013-03-08 03:33:00,
2013-03-07 19:40:00,50.7,37.7,29.84,NNE,20,2.0,5.0,61,0.00,,,-99.99,Weather View 32 v60,2013-03-08 03:40:00,
2013-03-07 19:43:00,51.4,36.6,29.85,NNE,25,1.0,7.0,57,0.00,,,-99.99,Weather View 32 v60,2013-03-08 03:43:00,
2013-03-07 19:53:00,51.1,37.2,29.85,North,9,2.0,6.0,59,0.00,,,-99.99,Weather View 32 v60,2013-03-08 03:53:00,
2013-03-07 19:55:00,50.2,38.1,29.85,NE,45,1.0,5.0,63,0.00,,,-99.99,Weather View 32 v60,2013-03-08 03:55:00,
2013-03-07 19:58:00,51.1,37.2,29.85,NNW,347,2.0,6.0,59,0.00,,,-99.99,Weather View 32 v60,2013-03-08 03:58:00,
2013-03-07 20:00:00,50.0,38.3,29.85,NNE,21,3.0,5.0,64,0.00,,,-99.99,Weather View 32 v60,2013-03-08 04:00:00,
2013-03-07 20:03:00,51.2,37.3,29.84,NW,318,3.0,6.0,59,0.00,,,-99.99,Weather View 32 v60,2013-03-08 04:03:00,
2013-03-07 20:05:00,49.8,38.1,29.85,NNW,338,1.0,5.0,64,0.00,,,-99.99,Weather View 32 v60,2013-03-08 04:05:00,
2013-03-07 20:10:00,49.6,38.3,29.85,North,11,4.0,5.0,65,0.00,,,-99.99,Weather View 32 v60,2013-03-08 04:10:00,
2013-03-07 20:13:00,51.2,37.3,29.84,NNW,346,2.0,6.0,59,0.00,,,-99.99,Weather View 32 v60,2013-03-08 04:13:00,
2013-03-07 20:15:00,49.5,38.2,29.85,NNE,30,4.0,5.0,65,0.00,,,-99.99,Weather View 32 v60,2013-03-08 04:15:00,
2013-03-07 20:20:00,49.5,38.2,29.85,NNE,16,2.0,6.0,65,0.00,,,-99.99,Weather View 32 v60,2013-03-08 04:20:00,
2013-03-07 20:23:00,51.2,37.8,29.84,NNW,339,2.0,5.0,60,0.00,,,-99.99,Weather View 32 v60,2013-03-08 04:23:00,
2013-03-07 20:25:00,49.5,38.2,29.85,North,360,2.0,6.0,65,0.00,,,-99.99,Weather View 32 v60,2013-03-08 04:25:00,
2013-03-07 20:28:00,51.1,37.7,29.84,North,357,1.0,5.0,60,0.00,,,-99.99,Weather View 32 v60,2013-03-08 04:28:00,
2013-03-07 20:30:00,49.4,38.1,29.85,NNW,337,2.0,6.0,65,0.00,,,-99.99,Weather View 32 v60,2013-03-08 04:30:00,
2013-03-07 20:33:00,51.0,37.6,29.84,NNE,32,2.0,5.0,60,0.00,,,-99.99,Weather View 32 v60,2013-03-08 04:33:00,
2013-03-07 20:35:00,49.4,38.5,29.85,NE,40,2.0,6.0,66,0.00,,,-99.99,Weather View 32 v60,2013-03-08 04:35:00,
2013-03-07 20:40:00,49.2,38.3,29.85,North,5,2.0,6.0,66,0.00,,,-99.99,Weather View 32 v60,2013-03-08 04:40:00,
2013-03-07 20:45:00,49.0,38.1,29.85,North,355,2.0,6.0,66,0.00,,,-99.99,Weather View 32 v60,2013-03-08 04:45:00,
2013-03-07 20:48:00,50.5,37.5,29.84,NNW,330,2.0,5.0,61,0.00,,,-99.99,Weather View 32 v60,2013-03-08 04:48:00,
2013-03-07 20:50:00,48.8,38.3,29.85,NNE,31,2.0,6.0,67,0.00,,,-99.99,Weather View 32 v60,2013-03-08 04:50:00,
2013-03-07 20:53:00,50.4,37.8,29.84,NNE,12,3.0,5.0,62,0.00,,,-99.99,Weather View 32 v60,2013-03-08 04:53:00,
2013-03-07 20:55:00,48.7,38.2,29.85,NE,34,3.0,6.0,67,0.00,,,-99.99,Weather View 32 v60,2013-03-08 04:55:00,
2013-03-07 21:00:00,48.1,38.0,29.85,ENE,69,2.0,6.0,68,0.00,,,-99.99,Weather View 32 v60,2013-03-08 05:00:00,
2013-03-07 21:05:00,47.4,37.7,29.85,NNE,12,1.0,6.0,69,0.00,,,-99.99,Weather View 32 v60,2013-03-08 05:05:00,
2013-03-07 21:10:00,46.8,37.5,29.85,NE,54,5.0,6.0,70,0.00,,,-99.99,Weather View 32 v60,2013-03-08 05:10:00,
2013-03-07 21:15:00,46.4,37.9,29.85,NNE,22,1.0,6.0,72,0.00,,,-99.99,Weather View 32 v60,2013-03-08 05:15:00,
2013-03-07 21:20:00,45.9,37.7,29.85,ENE,67,2.0,6.0,73,0.00,,,-99.99,Weather View 32 v60,2013-03-08 05:20:00,
2013-03-07 21:25:00,45.4,37.6,29.85,East,82,2.0,6.0,74,0.00,,,-99.99,Weather View 32 v60,2013-03-08 05:25:00,
2013-03-07 21:30:00,45.1,37.6,29.85,NNE,31,1.0,6.0,75,0.00,,,-99.99,Weather View 32 v60,2013-03-08 05:30:00,
2013-03-07 21:35:00,44.7,37.3,29.85,East,79,2.0,6.0,75,0.00,,,-99.99,Weather View 32 v60,2013-03-08 05:35:00,
2013-03-07 21:40:00,44.3,37.2,29.85,ENE,73,2.0,6.0,76,0.00,,,-99.99,Weather View 32 v60,2013-03-08 05:40:00,
2013-03-07 21:45:00,44.1,37.3,29.85,East,82,2.0,6.0,77,0.00,,,-99.99,Weather View 32 v60,2013-03-08 05:45:00,
2013-03-07 21:50:00,43.9,37.5,29.85,East,83,2.0,6.0,78,0.00,,,-99.99,Weather View 32 v60,2013-03-08 05:50:00,
2013-03-07 21:55:00,43.6,37.2,29.85,NE,36,1.0,5.0,78,0.00,,,-99.99,Weather View 32 v60,2013-03-08 05:55:00,
2013-03-07 22:00:00,43.9,37.8,29.85,North,355,2.0,5.0,79,0.00,,,-99.99,Weather View 32 v60,2013-03-08 06:00:00,
2013-03-07 22:05:00,44.4,38.0,29.85,NNE,24,3.0,5.0,78,0.00,,,-99.99,Weather View 32 v60,2013-03-08 06:05:00,
2013-03-07 22:10:00,44.8,38.3,29.85,North,5,5.0,5.0,78,0.00,,,-99.99,Weather View 32 v60,2013-03-08 06:10:00,
2013-03-07 22:15:00,45.2,38.4,29.85,North,10,2.0,5.0,77,0.00,,,-99.99,Weather View 32 v60,2013-03-08 06:15:00,
2013-03-07 22:20:00,45.0,37.9,29.85,ENE,71,3.0,5.0,76,0.00,,,-99.99,Weather View 32 v60,2013-03-08 06:20:00,
2013-03-07 22:25:00,44.6,37.5,29.85,ENE,77,2.0,5.0,76,0.00,,,-99.99,Weather View 32 v60,2013-03-08 06:25:00,
2013-03-07 22:30:00,44.2,37.4,29.85,NE,36,1.0,5.0,77,0.00,,,-99.99,Weather View 32 v60,2013-03-08 06:30:00,
2013-03-07 22:35:00,43.8,37.4,29.84,NE,38,2.0,5.0,78,0.00,,,-99.99,Weather View 32 v60,2013-03-08 06:35:00,
2013-03-07 22:40:00,43.6,37.2,29.84,North,7,2.0,5.0,78,0.00,,,-99.99,Weather View 32 v60,2013-03-08 06:40:00,
2013-03-07 22:45:00,43.7,37.6,29.84,NNE,29,3.0,5.0,79,0.00,,,-99.99,Weather View 32 v60,2013-03-08 06:45:00,
2013-03-07 22:50:00,43.7,37.6,29.84,North,8,1.0,5.0,79,0.00,,,-99.99,Weather View 32 v60,2013-03-08 06:50:00,
2013-03-07 22:55:00,43.6,37.8,29.84,NNE,15,3.0,5.0,80,0.00,,,-99.99,Weather View 32 v60,2013-03-08 06:55:00,
2013-03-07 23:00:00,43.8,37.7,29.84,NNW,348,2.0,5.0,79,0.00,,,-99.99,Weather View 32 v60,2013-03-08 07:00:00,
2013-03-07 23:05:00,43.8,37.7,29.84,NNE,15,2.0,5.0,79,0.00,,,-99.99,Weather View 32 v60,2013-03-08 07:05:00,
2013-03-07 23:10:00,43.9,37.8,29.84,NNE,25,3.0,5.0,79,0.00,,,-99.99,Weather View 32 v60,2013-03-08 07:10:00,
2013-03-07 23:15:00,44.0,37.9,29.84,NNE,33,3.0,7.0,79,0.00,,,-99.99,Weather View 32 v60,2013-03-08 07:15:00,
2013-03-07 23:20:00,44.1,38.0,29.84,North,351,3.0,7.0,79,0.00,,,-99.99,Weather View 32 v60,2013-03-08 07:20:00,
2013-03-07 23:25:00,44.1,37.7,29.84,North,356,2.0,7.0,78,0.00,,,-99.99,Weather View 32 v60,2013-03-08 07:25:00,
2013-03-07 23:30:00,44.0,37.6,29.84,North,5,3.0,7.0,78,0.00,,,-99.99,Weather View 32 v60,2013-03-08 07:30:00,
2013-03-07 23:35:00,43.9,37.5,29.84,NE,47,3.0,7.0,78,0.00,,,-99.99,Weather View 32 v60,2013-03-08 07:35:00,
2013-03-07 23:40:00,43.9,37.8,29.84,North,6,2.0,7.0,79,0.00,,,-99.99,Weather View 32 v60,2013-03-08 07:40:00,
2013-03-07 23:45:00,43.9,37.8,29.84,North,354,2.0,7.0,79,0.00,,,-99.99,Weather View 32 v60,2013-03-08 07:45:00,
2013-03-07 23:50:00,43.8,37.4,29.84,North,11,2.0,7.0,78,0.00,,,-99.99,Weather View 32 v60,2013-03-08 07:50:00,
2013-03-07 23:55:00,43.7,37.3,29.84,North,356,2.0,7.0,78,0.00,,,-99.99,Weather View 32 v60,2013-03-08 07:55:00,